sensor_id;sensor_type;location;lat;lon;timestamp;temperature;humidity
11242;DHT22;5678;52.370;9.006;2023-07-22T00:02:13;12.50;99.90
11242;DHT22;5678;52.370;9.006;2023-07-22T00:04:41;12.30;99.90
11242;DHT22;5678;52.370;9.006;2023-07-22T00:07:11;12.30;99.90
11242;DHT22;5678;52.370;9.006;2023-07-22T00:09:39;12.30;99.90
11242;DHT22;5678;52.370;9.006;2023-07-22T00:12:08;12.20;99.90
11242;DHT22;5678;52.370;9.006;2023-07-22T00:14:39;12.20;99.90
11242;DHT22;5678;52.370;9.006;2023-07-22T00:17:09;12.20;99.90
11242;DHT22;5678;52.370;9.006;2023-07-22T00:19:37;12.20;99.90
11242;DHT22;5678;52.370;9.006;2023-07-22T00:22:05;12.10;99.90
11242;DHT22;5678;52.370;9.006;2023-07-22T00:24:34;12.10;99.90
11242;DHT22;5678;52.370;9.006;2023-07-22T00:27:02;12.10;99.90
11242;DHT22;5678;52.370;9.006;2023-07-22T00:29:30;12.10;99.90
11242;DHT22;5678;52.370;9.006;2023-07-22T00:31:58;12.00;99.90
11242;DHT22;5678;52.370;9.006;2023-07-22T00:34:27;12.00;99.90
11242;DHT22;5678;52.370;9.006;2023-07-22T00:36:55;11.90;99.90
11242;DHT22;5678;52.370;9.006;2023-07-22T00:39:23;12.00;99.90
11242;DHT22;5678;52.370;9.006;2023-07-22T00:41:51;12.00;99.90
11242;DHT22;5678;52.370;9.006;2023-07-22T00:44:19;12.00;99.90
11242;DHT22;5678;52.370;9.006;2023-07-22T00:46:48;12.00;99.90
11242;DHT22;5678;52.370;9.006;2023-07-22T00:49:17;11.90;99.90
11242;DHT22;5678;52.370;9.006;2023-07-22T00:51:46;11.90;99.90
11242;DHT22;5678;52.370;9.006;2023-07-22T00:54:15;11.90;99.90
11242;DHT22;5678;52.370;9.006;2023-07-22T00:56:44;11.90;99.90
11242;DHT22;5678;52.370;9.006;2023-07-22T01:09:20;11.80;99.90
11242;DHT22;5678;52.370;9.006;2023-07-22T01:11:48;11.70;99.90
11242;DHT22;5678;52.370;9.006;2023-07-22T01:14:16;11.60;99.90
11242;DHT22;5678;52.370;9.006;2023-07-22T01:16:44;11.60;99.90
11242;DHT22;5678;52.370;9.006;2023-07-22T01:21:45;11.50;99.90
11242;DHT22;5678;52.370;9.006;2023-07-22T01:24:16;11.60;99.90
11242;DHT22;5678;52.370;9.006;2023-07-22T01:26:44;11.60;99.90
11242;DHT22;5678;52.370;9.006;2023-07-22T01:29:12;11.60;99.90
11242;DHT22;5678;52.370;9.006;2023-07-22T01:31:40;11.70;99.90
11242;DHT22;5678;52.370;9.006;2023-07-22T01:36:39;11.70;99.90
11242;DHT22;5678;52.370;9.006;2023-07-22T01:39:07;11.60;99.90
11242;DHT22;5678;52.370;9.006;2023-07-22T01:41:36;11.60;99.90
11242;DHT22;5678;52.370;9.006;2023-07-22T01:44:04;11.60;99.90
11242;DHT22;5678;52.370;9.006;2023-07-22T01:46:32;11.60;99.90
11242;DHT22;5678;52.370;9.006;2023-07-22T01:49:01;11.60;99.90
11242;DHT22;5678;52.370;9.006;2023-07-22T01:51:29;11.70;99.90
11242;DHT22;5678;52.370;9.006;2023-07-22T01:53:57;11.60;99.90
11242;DHT22;5678;52.370;9.006;2023-07-22T01:56:25;11.60;99.90
11242;DHT22;5678;52.370;9.006;2023-07-22T01:58:55;11.60;99.90
11242;DHT22;5678;52.370;9.006;2023-07-22T02:01:23;11.50;99.90
11242;DHT22;5678;52.370;9.006;2023-07-22T02:03:51;11.50;99.90
11242;DHT22;5678;52.370;9.006;2023-07-22T02:06:19;11.40;99.90
11242;DHT22;5678;52.370;9.006;2023-07-22T02:08:47;11.50;99.90
11242;DHT22;5678;52.370;9.006;2023-07-22T02:11:16;11.40;99.90
11242;DHT22;5678;52.370;9.006;2023-07-22T02:13:45;11.40;99.90
11242;DHT22;5678;52.370;9.006;2023-07-22T02:16:14;11.40;99.90
11242;DHT22;5678;52.370;9.006;2023-07-22T02:18:43;11.30;99.90
11242;DHT22;5678;52.370;9.006;2023-07-22T02:21:11;11.30;99.90
11242;DHT22;5678;52.370;9.006;2023-07-22T02:23:40;11.30;99.90
11242;DHT22;5678;52.370;9.006;2023-07-22T02:26:08;11.20;99.90
11242;DHT22;5678;52.370;9.006;2023-07-22T02:28:37;11.10;99.90
11242;DHT22;5678;52.370;9.006;2023-07-22T02:33:36;11.10;99.90
11242;DHT22;5678;52.370;9.006;2023-07-22T02:36:04;11.10;99.90
11242;DHT22;5678;52.370;9.006;2023-07-22T02:38:32;11.10;99.90
11242;DHT22;5678;52.370;9.006;2023-07-22T02:41:04;11.70;99.90
11242;DHT22;5678;52.370;9.006;2023-07-22T02:43:34;11.20;99.90
11242;DHT22;5678;52.370;9.006;2023-07-22T02:46:03;11.20;99.90
11242;DHT22;5678;52.370;9.006;2023-07-22T02:48:35;11.20;99.90
11242;DHT22;5678;52.370;9.006;2023-07-22T02:51:06;11.40;99.90
11242;DHT22;5678;52.370;9.006;2023-07-22T02:53:36;11.20;99.90
11242;DHT22;5678;52.370;9.006;2023-07-22T02:56:05;11.20;99.90
11242;DHT22;5678;52.370;9.006;2023-07-22T02:58:33;11.10;99.90
11242;DHT22;5678;52.370;9.006;2023-07-22T03:01:03;11.00;99.90
11242;DHT22;5678;52.370;9.006;2023-07-22T03:03:31;11.20;99.90
11242;DHT22;5678;52.370;9.006;2023-07-22T03:06:02;11.10;99.90
11242;DHT22;5678;52.370;9.006;2023-07-22T03:08:30;11.10;99.90
11242;DHT22;5678;52.370;9.006;2023-07-22T03:10:58;11.10;99.90
11242;DHT22;5678;52.370;9.006;2023-07-22T03:13:26;11.20;99.90
11242;DHT22;5678;52.370;9.006;2023-07-22T03:15:56;11.20;99.90
11242;DHT22;5678;52.370;9.006;2023-07-22T03:18:25;11.10;99.90
11242;DHT22;5678;52.370;9.006;2023-07-22T03:20:53;10.80;99.90
11242;DHT22;5678;52.370;9.006;2023-07-22T03:23:22;11.20;99.90
11242;DHT22;5678;52.370;9.006;2023-07-22T03:25:50;11.20;99.90
11242;DHT22;5678;52.370;9.006;2023-07-22T03:28:18;11.20;99.90
11242;DHT22;5678;52.370;9.006;2023-07-22T03:30:46;11.20;99.90
11242;DHT22;5678;52.370;9.006;2023-07-22T03:33:14;11.20;99.90
11242;DHT22;5678;52.370;9.006;2023-07-22T03:35:42;11.10;99.90
11242;DHT22;5678;52.370;9.006;2023-07-22T03:38:10;11.20;99.90
11242;DHT22;5678;52.370;9.006;2023-07-22T03:40:40;11.20;99.90
11242;DHT22;5678;52.370;9.006;2023-07-22T03:43:08;11.10;99.90
11242;DHT22;5678;52.370;9.006;2023-07-22T03:45:36;11.20;99.90
11242;DHT22;5678;52.370;9.006;2023-07-22T03:48:05;11.20;99.90
11242;DHT22;5678;52.370;9.006;2023-07-22T03:50:33;11.30;99.90
11242;DHT22;5678;52.370;9.006;2023-07-22T03:53:02;11.20;99.90
11242;DHT22;5678;52.370;9.006;2023-07-22T03:55:29;11.50;99.90
11242;DHT22;5678;52.370;9.006;2023-07-22T03:57:59;11.30;99.90
11242;DHT22;5678;52.370;9.006;2023-07-22T04:00:27;11.30;99.90
11242;DHT22;5678;52.370;9.006;2023-07-22T04:02:55;11.50;99.90
11242;DHT22;5678;52.370;9.006;2023-07-22T04:05:23;11.40;99.90
11242;DHT22;5678;52.370;9.006;2023-07-22T04:07:51;11.50;99.90
11242;DHT22;5678;52.370;9.006;2023-07-22T04:10:19;11.50;99.90
11242;DHT22;5678;52.370;9.006;2023-07-22T04:12:47;11.60;99.90
11242;DHT22;5678;52.370;9.006;2023-07-22T04:15:16;11.60;99.90
11242;DHT22;5678;52.370;9.006;2023-07-22T04:17:44;11.70;99.90
11242;DHT22;5678;52.370;9.006;2023-07-22T04:20:13;11.70;99.90
11242;DHT22;5678;52.370;9.006;2023-07-22T04:22:41;11.80;99.90
11242;DHT22;5678;52.370;9.006;2023-07-22T04:25:10;11.90;99.90
11242;DHT22;5678;52.370;9.006;2023-07-22T04:27:38;11.90;99.90
11242;DHT22;5678;52.370;9.006;2023-07-22T04:30:07;11.90;99.90
11242;DHT22;5678;52.370;9.006;2023-07-22T04:32:37;12.00;99.90
11242;DHT22;5678;52.370;9.006;2023-07-22T04:35:06;12.00;99.90
11242;DHT22;5678;52.370;9.006;2023-07-22T04:37:34;12.10;99.90
11242;DHT22;5678;52.370;9.006;2023-07-22T04:40:03;12.20;99.90
11242;DHT22;5678;52.370;9.006;2023-07-22T04:42:35;12.30;99.90
11242;DHT22;5678;52.370;9.006;2023-07-22T04:45:04;12.30;99.90
11242;DHT22;5678;52.370;9.006;2023-07-22T04:47:32;12.30;99.90
11242;DHT22;5678;52.370;9.006;2023-07-22T04:50:02;12.40;99.90
11242;DHT22;5678;52.370;9.006;2023-07-22T04:52:32;12.40;99.90
11242;DHT22;5678;52.370;9.006;2023-07-22T04:55:00;12.50;99.90
11242;DHT22;5678;52.370;9.006;2023-07-22T04:57:31;12.50;99.90
11242;DHT22;5678;52.370;9.006;2023-07-22T04:59:59;12.50;99.90
11242;DHT22;5678;52.370;9.006;2023-07-22T05:02:30;12.60;99.90
11242;DHT22;5678;52.370;9.006;2023-07-22T05:04:58;12.60;99.90
11242;DHT22;5678;52.370;9.006;2023-07-22T05:07:28;12.70;99.90
11242;DHT22;5678;52.370;9.006;2023-07-22T05:09:57;12.80;99.90
11242;DHT22;5678;52.370;9.006;2023-07-22T05:12:25;12.90;99.90
11242;DHT22;5678;52.370;9.006;2023-07-22T05:14:53;13.00;99.90
11242;DHT22;5678;52.370;9.006;2023-07-22T05:17:21;13.00;99.90
11242;DHT22;5678;52.370;9.006;2023-07-22T05:19:49;13.10;99.90
11242;DHT22;5678;52.370;9.006;2023-07-22T05:22:17;13.30;99.90
11242;DHT22;5678;52.370;9.006;2023-07-22T05:24:46;13.40;99.90
11242;DHT22;5678;52.370;9.006;2023-07-22T05:27:14;13.70;99.90
11242;DHT22;5678;52.370;9.006;2023-07-22T05:29:42;13.50;99.90
11242;DHT22;5678;52.370;9.006;2023-07-22T05:32:11;14.00;99.90
11242;DHT22;5678;52.370;9.006;2023-07-22T05:34:58;13.70;99.90
11242;DHT22;5678;52.370;9.006;2023-07-22T05:37:26;13.80;99.90
11242;DHT22;5678;52.370;9.006;2023-07-22T05:39:56;13.70;99.90
11242;DHT22;5678;52.370;9.006;2023-07-22T05:42:24;13.90;99.90
11242;DHT22;5678;52.370;9.006;2023-07-22T05:44:54;13.90;99.90
11242;DHT22;5678;52.370;9.006;2023-07-22T05:47:22;14.20;99.90
11242;DHT22;5678;52.370;9.006;2023-07-22T05:49:50;14.20;99.90
11242;DHT22;5678;52.370;9.006;2023-07-22T05:52:18;14.40;99.90
11242;DHT22;5678;52.370;9.006;2023-07-22T05:54:46;14.10;99.90
11242;DHT22;5678;52.370;9.006;2023-07-22T05:57:15;14.30;99.90
11242;DHT22;5678;52.370;9.006;2023-07-22T05:59:43;14.70;99.90
11242;DHT22;5678;52.370;9.006;2023-07-22T06:02:12;15.00;99.90
11242;DHT22;5678;52.370;9.006;2023-07-22T06:04:41;15.20;99.90
11242;DHT22;5678;52.370;9.006;2023-07-22T06:07:09;15.10;99.90
11242;DHT22;5678;52.370;9.006;2023-07-22T06:09:36;15.30;99.90
11242;DHT22;5678;52.370;9.006;2023-07-22T06:12:05;15.60;99.90
11242;DHT22;5678;52.370;9.006;2023-07-22T06:14:34;16.20;99.90
11242;DHT22;5678;52.370;9.006;2023-07-22T06:17:03;16.30;99.90
11242;DHT22;5678;52.370;9.006;2023-07-22T06:19:31;16.80;99.90
11242;DHT22;5678;52.370;9.006;2023-07-22T06:21:59;18.00;99.90
11242;DHT22;5678;52.370;9.006;2023-07-22T06:24:27;17.70;99.90
11242;DHT22;5678;52.370;9.006;2023-07-22T06:26:55;18.10;99.90
11242;DHT22;5678;52.370;9.006;2023-07-22T06:29:23;18.30;99.90
11242;DHT22;5678;52.370;9.006;2023-07-22T06:31:52;18.60;99.90
11242;DHT22;5678;52.370;9.006;2023-07-22T06:34:20;18.40;99.90
11242;DHT22;5678;52.370;9.006;2023-07-22T06:36:48;18.20;99.90
11242;DHT22;5678;52.370;9.006;2023-07-22T06:39:16;18.30;99.90
11242;DHT22;5678;52.370;9.006;2023-07-22T06:41:44;18.40;99.90
11242;DHT22;5678;52.370;9.006;2023-07-22T06:44:11;18.60;99.90
11242;DHT22;5678;52.370;9.006;2023-07-22T06:46:39;19.10;99.90
11242;DHT22;5678;52.370;9.006;2023-07-22T06:49:09;18.70;99.90
11242;DHT22;5678;52.370;9.006;2023-07-22T06:51:37;19.00;99.90
11242;DHT22;5678;52.370;9.006;2023-07-22T06:54:05;19.50;99.90
11242;DHT22;5678;52.370;9.006;2023-07-22T06:56:33;19.60;99.90
11242;DHT22;5678;52.370;9.006;2023-07-22T06:59:01;19.50;99.90
11242;DHT22;5678;52.370;9.006;2023-07-22T07:01:29;19.80;99.90
11242;DHT22;5678;52.370;9.006;2023-07-22T07:03:57;20.10;99.90
11242;DHT22;5678;52.370;9.006;2023-07-22T07:06:28;19.60;99.90
11242;DHT22;5678;52.370;9.006;2023-07-22T07:08:59;20.20;99.90
11242;DHT22;5678;52.370;9.006;2023-07-22T07:11:28;20.20;99.90
11242;DHT22;5678;52.370;9.006;2023-07-22T07:13:56;20.00;99.90
11242;DHT22;5678;52.370;9.006;2023-07-22T07:16:26;20.00;99.90
11242;DHT22;5678;52.370;9.006;2023-07-22T07:18:55;19.70;99.90
11242;DHT22;5678;52.370;9.006;2023-07-22T07:21:23;19.80;99.90
11242;DHT22;5678;52.370;9.006;2023-07-22T07:23:53;19.70;99.90
11242;DHT22;5678;52.370;9.006;2023-07-22T07:26:22;19.60;99.90
11242;DHT22;5678;52.370;9.006;2023-07-22T07:28:52;20.20;99.90
11242;DHT22;5678;52.370;9.006;2023-07-22T07:31:20;20.20;99.90
11242;DHT22;5678;52.370;9.006;2023-07-22T07:33:49;20.50;99.90
11242;DHT22;5678;52.370;9.006;2023-07-22T07:36:17;20.70;99.90
11242;DHT22;5678;52.370;9.006;2023-07-22T07:38:45;21.50;99.90
11242;DHT22;5678;52.370;9.006;2023-07-22T07:41:14;21.20;99.90
11242;DHT22;5678;52.370;9.006;2023-07-22T07:43:42;21.30;99.90
11242;DHT22;5678;52.370;9.006;2023-07-22T07:46:16;21.30;99.90
11242;DHT22;5678;52.370;9.006;2023-07-22T07:48:46;21.10;99.90
11242;DHT22;5678;52.370;9.006;2023-07-22T07:51:15;20.90;99.90
11242;DHT22;5678;52.370;9.006;2023-07-22T07:53:44;21.10;99.90
11242;DHT22;5678;52.370;9.006;2023-07-22T07:56:16;21.30;99.90
11242;DHT22;5678;52.370;9.006;2023-07-22T07:58:45;20.90;99.90
11242;DHT22;5678;52.370;9.006;2023-07-22T08:01:13;21.50;99.90
11242;DHT22;5678;52.370;9.006;2023-07-22T08:03:42;21.70;99.90
11242;DHT22;5678;52.370;9.006;2023-07-22T08:06:11;21.60;99.90
11242;DHT22;5678;52.370;9.006;2023-07-22T08:08:40;22.10;99.90
11242;DHT22;5678;52.370;9.006;2023-07-22T08:11:09;21.60;99.90
11242;DHT22;5678;52.370;9.006;2023-07-22T08:13:38;22.00;99.90
11242;DHT22;5678;52.370;9.006;2023-07-22T08:16:08;21.90;99.90
11242;DHT22;5678;52.370;9.006;2023-07-22T08:18:37;21.80;99.90
11242;DHT22;5678;52.370;9.006;2023-07-22T08:21:06;22.20;99.90
11242;DHT22;5678;52.370;9.006;2023-07-22T08:23:35;22.30;99.90
11242;DHT22;5678;52.370;9.006;2023-07-22T08:26:04;22.00;99.90
11242;DHT22;5678;52.370;9.006;2023-07-22T08:28:33;22.00;99.90
11242;DHT22;5678;52.370;9.006;2023-07-22T08:31:03;22.30;99.90
11242;DHT22;5678;52.370;9.006;2023-07-22T08:33:31;21.90;99.90
11242;DHT22;5678;52.370;9.006;2023-07-22T08:36:02;22.10;99.90
11242;DHT22;5678;52.370;9.006;2023-07-22T08:38:30;21.90;99.90
11242;DHT22;5678;52.370;9.006;2023-07-22T08:40:58;22.00;99.90
11242;DHT22;5678;52.370;9.006;2023-07-22T08:43:28;22.50;99.90
11242;DHT22;5678;52.370;9.006;2023-07-22T08:45:59;22.10;99.90
11242;DHT22;5678;52.370;9.006;2023-07-22T08:48:31;22.00;99.90
11242;DHT22;5678;52.370;9.006;2023-07-22T08:51:03;22.30;99.90
11242;DHT22;5678;52.370;9.006;2023-07-22T08:53:31;22.00;99.90
11242;DHT22;5678;52.370;9.006;2023-07-22T08:56:00;22.10;99.90
11242;DHT22;5678;52.370;9.006;2023-07-22T08:58:29;22.50;99.90
11242;DHT22;5678;52.370;9.006;2023-07-22T09:00:58;22.60;99.90
11242;DHT22;5678;52.370;9.006;2023-07-22T09:03:26;22.90;99.90
11242;DHT22;5678;52.370;9.006;2023-07-22T09:05:57;22.60;99.90
11242;DHT22;5678;52.370;9.006;2023-07-22T09:08:26;22.90;99.90
11242;DHT22;5678;52.370;9.006;2023-07-22T09:10:54;22.80;99.90
11242;DHT22;5678;52.370;9.006;2023-07-22T09:13:23;22.80;99.90
11242;DHT22;5678;52.370;9.006;2023-07-22T09:15:53;22.60;99.90
11242;DHT22;5678;52.370;9.006;2023-07-22T09:18:21;22.80;99.90
11242;DHT22;5678;52.370;9.006;2023-07-22T09:20:49;23.10;99.90
11242;DHT22;5678;52.370;9.006;2023-07-22T09:23:32;22.90;99.90
11242;DHT22;5678;52.370;9.006;2023-07-22T09:26:09;23.00;99.90
11242;DHT22;5678;52.370;9.006;2023-07-22T09:28:50;23.10;99.90
11242;DHT22;5678;52.370;9.006;2023-07-22T09:31:19;23.10;99.90
11242;DHT22;5678;52.370;9.006;2023-07-22T09:33:48;23.20;99.90
11242;DHT22;5678;52.370;9.006;2023-07-22T09:36:16;23.90;99.90
11242;DHT22;5678;52.370;9.006;2023-07-22T09:38:46;23.60;99.90
11242;DHT22;5678;52.370;9.006;2023-07-22T09:41:27;23.60;99.90
11242;DHT22;5678;52.370;9.006;2023-07-22T09:43:56;23.60;99.90
11242;DHT22;5678;52.370;9.006;2023-07-22T09:46:31;23.50;99.90
11242;DHT22;5678;52.370;9.006;2023-07-22T09:49:03;23.40;99.90
11242;DHT22;5678;52.370;9.006;2023-07-22T09:51:33;23.40;99.90
11242;DHT22;5678;52.370;9.006;2023-07-22T09:54:07;23.20;99.90
11242;DHT22;5678;52.370;9.006;2023-07-22T09:56:44;23.40;99.90
11242;DHT22;5678;52.370;9.006;2023-07-22T09:59:12;23.80;99.90
11242;DHT22;5678;52.370;9.006;2023-07-22T10:01:41;23.90;99.90
11242;DHT22;5678;52.370;9.006;2023-07-22T10:04:10;24.10;99.90
11242;DHT22;5678;52.370;9.006;2023-07-22T10:06:40;24.00;99.90
11242;DHT22;5678;52.370;9.006;2023-07-22T10:09:12;24.00;99.90
11242;DHT22;5678;52.370;9.006;2023-07-22T10:11:41;23.80;99.90
11242;DHT22;5678;52.370;9.006;2023-07-22T10:14:10;23.80;99.90
11242;DHT22;5678;52.370;9.006;2023-07-22T10:16:41;23.40;99.90
11242;DHT22;5678;52.370;9.006;2023-07-22T10:19:10;23.60;99.90
11242;DHT22;5678;52.370;9.006;2023-07-22T10:21:39;23.80;99.90
11242;DHT22;5678;52.370;9.006;2023-07-22T10:24:07;23.90;99.90
11242;DHT22;5678;52.370;9.006;2023-07-22T10:26:40;24.10;99.90
11242;DHT22;5678;52.370;9.006;2023-07-22T10:29:13;24.30;99.90
11242;DHT22;5678;52.370;9.006;2023-07-22T10:31:41;24.30;99.90
11242;DHT22;5678;52.370;9.006;2023-07-22T10:34:10;24.20;99.90
11242;DHT22;5678;52.370;9.006;2023-07-22T10:36:38;24.20;99.90
11242;DHT22;5678;52.370;9.006;2023-07-22T10:39:06;23.80;99.90
11242;DHT22;5678;52.370;9.006;2023-07-22T10:41:39;23.70;99.90
11242;DHT22;5678;52.370;9.006;2023-07-22T10:44:10;23.60;99.90
11242;DHT22;5678;52.370;9.006;2023-07-22T10:46:39;23.70;99.90
11242;DHT22;5678;52.370;9.006;2023-07-22T10:49:11;23.30;99.90
11242;DHT22;5678;52.370;9.006;2023-07-22T10:51:40;23.60;99.90
11242;DHT22;5678;52.370;9.006;2023-07-22T10:54:12;24.00;99.90
11242;DHT22;5678;52.370;9.006;2023-07-22T10:56:43;24.60;99.90
11242;DHT22;5678;52.370;9.006;2023-07-22T10:59:11;24.70;99.90
11242;DHT22;5678;52.370;9.006;2023-07-22T11:01:40;24.90;99.90
11242;DHT22;5678;52.370;9.006;2023-07-22T11:04:13;25.00;99.90
11242;DHT22;5678;52.370;9.006;2023-07-22T11:06:53;24.80;99.90
11242;DHT22;5678;52.370;9.006;2023-07-22T11:09:35;24.70;99.90
11242;DHT22;5678;52.370;9.006;2023-07-22T11:12:06;24.60;99.90
11242;DHT22;5678;52.370;9.006;2023-07-22T11:14:35;24.50;99.90
11242;DHT22;5678;52.370;9.006;2023-07-22T11:17:06;24.30;99.90
11242;DHT22;5678;52.370;9.006;2023-07-22T11:22:06;23.40;99.90
11242;DHT22;5678;52.370;9.006;2023-07-22T11:24:35;23.20;99.90
11242;DHT22;5678;52.370;9.006;2023-07-22T11:27:06;22.50;99.90
11242;DHT22;5678;52.370;9.006;2023-07-22T11:29:35;22.20;99.90
11242;DHT22;5678;52.370;9.006;2023-07-22T11:32:04;22.20;99.90
11242;DHT22;5678;52.370;9.006;2023-07-22T11:34:32;21.80;99.90
11242;DHT22;5678;52.370;9.006;2023-07-22T11:37:02;21.60;99.90
11242;DHT22;5678;52.370;9.006;2023-07-22T11:39:32;21.40;99.90
11242;DHT22;5678;52.370;9.006;2023-07-22T11:42:05;21.60;99.90
11242;DHT22;5678;52.370;9.006;2023-07-22T11:44:33;21.70;99.90
11242;DHT22;5678;52.370;9.006;2023-07-22T11:47:02;22.00;99.90
11242;DHT22;5678;52.370;9.006;2023-07-22T11:49:32;22.50;99.90
11242;DHT22;5678;52.370;9.006;2023-07-22T11:52:02;23.10;99.90
11242;DHT22;5678;52.370;9.006;2023-07-22T11:54:32;23.20;99.90
11242;DHT22;5678;52.370;9.006;2023-07-22T11:57:12;23.60;99.90
11242;DHT22;5678;52.370;9.006;2023-07-22T11:59:44;23.60;99.90
11242;DHT22;5678;52.370;9.006;2023-07-22T12:02:16;23.60;99.90
11242;DHT22;5678;52.370;9.006;2023-07-22T12:04:51;23.90;99.90
11242;DHT22;5678;52.370;9.006;2023-07-22T12:07:24;24.20;99.90
11242;DHT22;5678;52.370;9.006;2023-07-22T12:09:52;24.10;99.90
11242;DHT22;5678;52.370;9.006;2023-07-22T12:12:31;24.50;99.90
11242;DHT22;5678;52.370;9.006;2023-07-22T12:15:02;24.50;99.90
11242;DHT22;5678;52.370;9.006;2023-07-22T12:17:44;24.40;99.90
11242;DHT22;5678;52.370;9.006;2023-07-22T12:20:13;24.20;99.90
11242;DHT22;5678;52.370;9.006;2023-07-22T12:22:41;24.10;99.90
11242;DHT22;5678;52.370;9.006;2023-07-22T12:25:10;23.70;99.90
11242;DHT22;5678;52.370;9.006;2023-07-22T12:27:39;23.60;99.90
11242;DHT22;5678;52.370;9.006;2023-07-22T12:30:08;23.60;99.90
11242;DHT22;5678;52.370;9.006;2023-07-22T12:32:35;23.50;99.90
11242;DHT22;5678;52.370;9.006;2023-07-22T12:35:04;23.70;99.90
11242;DHT22;5678;52.370;9.006;2023-07-22T12:37:33;23.80;99.90
11242;DHT22;5678;52.370;9.006;2023-07-22T12:40:01;24.20;99.90
11242;DHT22;5678;52.370;9.006;2023-07-22T12:42:32;24.10;99.90
11242;DHT22;5678;52.370;9.006;2023-07-22T12:45:01;24.10;99.90
11242;DHT22;5678;52.370;9.006;2023-07-22T12:47:29;24.00;99.90
11242;DHT22;5678;52.370;9.006;2023-07-22T12:49:58;24.00;99.90
11242;DHT22;5678;52.370;9.006;2023-07-22T12:52:25;23.90;99.90
11242;DHT22;5678;52.370;9.006;2023-07-22T12:54:53;23.90;99.90
11242;DHT22;5678;52.370;9.006;2023-07-22T12:57:21;23.70;99.90
11242;DHT22;5678;52.370;9.006;2023-07-22T12:59:49;23.70;99.90
11242;DHT22;5678;52.370;9.006;2023-07-22T13:02:18;23.60;99.90
11242;DHT22;5678;52.370;9.006;2023-07-22T13:04:46;23.30;99.90
11242;DHT22;5678;52.370;9.006;2023-07-22T13:07:14;23.50;99.90
11242;DHT22;5678;52.370;9.006;2023-07-22T13:09:49;23.60;99.90
11242;DHT22;5678;52.370;9.006;2023-07-22T13:12:23;23.70;99.90
11242;DHT22;5678;52.370;9.006;2023-07-22T13:14:51;23.90;99.90
11242;DHT22;5678;52.370;9.006;2023-07-22T13:17:20;24.10;99.90
11242;DHT22;5678;52.370;9.006;2023-07-22T13:19:48;24.20;99.90
11242;DHT22;5678;52.370;9.006;2023-07-22T13:22:16;24.30;99.90
11242;DHT22;5678;52.370;9.006;2023-07-22T13:24:44;24.50;99.90
11242;DHT22;5678;52.370;9.006;2023-07-22T13:27:12;24.70;99.90
11242;DHT22;5678;52.370;9.006;2023-07-22T13:29:40;24.50;99.90
11242;DHT22;5678;52.370;9.006;2023-07-22T13:32:08;24.40;99.90
11242;DHT22;5678;52.370;9.006;2023-07-22T13:34:37;24.50;99.90
11242;DHT22;5678;52.370;9.006;2023-07-22T13:37:05;24.50;99.90
11242;DHT22;5678;52.370;9.006;2023-07-22T13:39:34;24.70;99.90
11242;DHT22;5678;52.370;9.006;2023-07-22T13:42:02;24.90;99.90
11242;DHT22;5678;52.370;9.006;2023-07-22T13:44:30;24.70;99.90
11242;DHT22;5678;52.370;9.006;2023-07-22T13:46:58;24.70;99.90
11242;DHT22;5678;52.370;9.006;2023-07-22T13:49:26;24.70;99.90
11242;DHT22;5678;52.370;9.006;2023-07-22T13:51:55;24.90;99.90
11242;DHT22;5678;52.370;9.006;2023-07-22T13:54:23;24.90;32.30
11242;DHT22;5678;52.370;9.006;2023-07-22T13:56:51;24.90;1.00
11242;DHT22;5678;52.370;9.006;2023-07-22T13:59:19;24.70;1.00
11242;DHT22;5678;52.370;9.006;2023-07-22T14:01:46;24.80;1.00
11242;DHT22;5678;52.370;9.006;2023-07-22T14:04:14;24.80;1.00
11242;DHT22;5678;52.370;9.006;2023-07-22T14:06:42;24.70;1.00
11242;DHT22;5678;52.370;9.006;2023-07-22T14:09:12;24.70;1.00
11242;DHT22;5678;52.370;9.006;2023-07-22T14:11:40;24.60;1.00
11242;DHT22;5678;52.370;9.006;2023-07-22T14:14:08;24.60;1.00
11242;DHT22;5678;52.370;9.006;2023-07-22T14:16:36;24.70;1.00
11242;DHT22;5678;52.370;9.006;2023-07-22T14:19:04;24.60;1.00
11242;DHT22;5678;52.370;9.006;2023-07-22T14:21:32;24.70;1.00
11242;DHT22;5678;52.370;9.006;2023-07-22T14:24:00;24.90;1.00
11242;DHT22;5678;52.370;9.006;2023-07-22T14:26:29;24.80;1.00
11242;DHT22;5678;52.370;9.006;2023-07-22T14:28:57;24.90;1.00
11242;DHT22;5678;52.370;9.006;2023-07-22T14:31:25;24.70;1.00
11242;DHT22;5678;52.370;9.006;2023-07-22T14:33:53;24.70;1.00
11242;DHT22;5678;52.370;9.006;2023-07-22T14:36:21;24.70;1.00
11242;DHT22;5678;52.370;9.006;2023-07-22T14:38:49;24.90;1.00
11242;DHT22;5678;52.370;9.006;2023-07-22T14:41:17;24.80;1.00
11242;DHT22;5678;52.370;9.006;2023-07-22T14:43:46;24.90;1.00
11242;DHT22;5678;52.370;9.006;2023-07-22T14:46:14;25.00;1.00
11242;DHT22;5678;52.370;9.006;2023-07-22T14:48:43;25.00;1.00
11242;DHT22;5678;52.370;9.006;2023-07-22T14:51:12;24.90;1.00
11242;DHT22;5678;52.370;9.006;2023-07-22T14:53:40;24.80;1.00
11242;DHT22;5678;52.370;9.006;2023-07-22T14:56:08;24.70;1.00
11242;DHT22;5678;52.370;9.006;2023-07-22T14:58:36;24.80;1.00
11242;DHT22;5678;52.370;9.006;2023-07-22T15:01:05;24.40;1.00
11242;DHT22;5678;52.370;9.006;2023-07-22T15:03:36;24.30;1.00
11242;DHT22;5678;52.370;9.006;2023-07-22T15:06:04;24.00;1.00
11242;DHT22;5678;52.370;9.006;2023-07-22T15:08:33;23.60;1.00
11242;DHT22;5678;52.370;9.006;2023-07-22T15:11:01;23.50;1.00
11242;DHT22;5678;52.370;9.006;2023-07-22T15:13:29;23.40;1.00
11242;DHT22;5678;52.370;9.006;2023-07-22T15:15:57;23.40;1.00
11242;DHT22;5678;52.370;9.006;2023-07-22T15:18:26;23.00;1.00
11242;DHT22;5678;52.370;9.006;2023-07-22T15:20:54;23.10;1.00
11242;DHT22;5678;52.370;9.006;2023-07-22T15:23:22;22.80;1.00
11242;DHT22;5678;52.370;9.006;2023-07-22T15:25:51;22.80;1.00
11242;DHT22;5678;52.370;9.006;2023-07-22T15:28:19;22.60;1.00
11242;DHT22;5678;52.370;9.006;2023-07-22T15:30:47;22.50;1.00
11242;DHT22;5678;52.370;9.006;2023-07-22T15:33:15;22.40;1.00
11242;DHT22;5678;52.370;9.006;2023-07-22T15:35:44;22.40;1.00
11242;DHT22;5678;52.370;9.006;2023-07-22T15:38:12;22.40;1.00
11242;DHT22;5678;52.370;9.006;2023-07-22T15:40:40;22.10;1.00
11242;DHT22;5678;52.370;9.006;2023-07-22T15:43:08;22.10;1.00
11242;DHT22;5678;52.370;9.006;2023-07-22T15:45:36;22.00;1.00
11242;DHT22;5678;52.370;9.006;2023-07-22T15:48:05;22.10;1.00
11242;DHT22;5678;52.370;9.006;2023-07-22T15:50:33;21.80;1.00
11242;DHT22;5678;52.370;9.006;2023-07-22T15:53:02;21.60;1.00
11242;DHT22;5678;52.370;9.006;2023-07-22T15:55:30;21.60;1.00
11242;DHT22;5678;52.370;9.006;2023-07-22T15:57:58;21.40;99.90
11242;DHT22;5678;52.370;9.006;2023-07-22T16:00:26;21.00;1.00
11242;DHT22;5678;52.370;9.006;2023-07-22T16:02:54;21.00;99.90
11242;DHT22;5678;52.370;9.006;2023-07-22T16:05:22;20.70;99.90
11242;DHT22;5678;52.370;9.006;2023-07-22T16:07:50;20.80;99.90
11242;DHT22;5678;52.370;9.006;2023-07-22T16:10:21;20.80;99.90
11242;DHT22;5678;52.370;9.006;2023-07-22T16:12:52;21.50;99.90
11242;DHT22;5678;52.370;9.006;2023-07-22T16:15:20;20.70;99.90
11242;DHT22;5678;52.370;9.006;2023-07-22T16:17:48;20.50;99.90
11242;DHT22;5678;52.370;9.006;2023-07-22T16:20:16;20.70;99.90